createdAt,value
2019-02-20T00:00:05.208Z,3.62
2019-02-20T00:01:05.483Z,3.62
2019-02-20T00:02:05.632Z,3.62
2019-02-20T00:03:05.626Z,3.62
2019-02-20T00:04:05.850Z,3.62
2019-02-20T00:05:05.304Z,3.56
2019-02-20T00:06:05.535Z,3.56
2019-02-20T00:07:05.074Z,3.56
2019-02-20T00:08:05.611Z,3.56
2019-02-20T00:09:05.220Z,3.56
2019-02-20T00:10:05.701Z,3.56
2019-02-20T00:11:05.871Z,3.56
2019-02-20T00:12:05.922Z,3.56
2019-02-20T00:13:05.483Z,3.56
2019-02-20T00:14:05.618Z,3.56
2019-02-20T00:15:05.675Z,3.56
2019-02-20T00:16:05.919Z,3.56
2019-02-20T00:17:05.616Z,3.50
2019-02-20T00:18:05.118Z,3.50
2019-02-20T00:19:05.387Z,3.50
2019-02-20T00:20:05.538Z,3.50
2019-02-20T00:21:05.955Z,3.56
2019-02-20T00:22:05.204Z,3.50
2019-02-20T00:23:05.391Z,3.50
2019-02-20T00:24:05.529Z,3.44
2019-02-20T00:25:05.600Z,3.44
2019-02-20T00:26:05.927Z,3.44
2019-02-20T00:27:05.156Z,3.56
2019-02-20T00:28:05.206Z,3.50
2019-02-20T00:29:05.385Z,3.50
2019-02-20T00:30:05.774Z,3.50
2019-02-20T00:31:05.315Z,3.50
2019-02-20T00:32:05.366Z,3.50
2019-02-20T00:33:06.106Z,3.50
2019-02-20T00:34:05.214Z,3.44
2019-02-20T00:35:05.788Z,3.44
2019-02-20T00:36:05.950Z,3.44
2019-02-20T00:37:06.112Z,3.44
2019-02-20T00:38:05.300Z,3.38
2019-02-20T00:39:05.879Z,3.38
2019-02-20T00:40:05.923Z,3.38
2019-02-20T00:41:05.051Z,3.38
2019-02-20T00:42:05.287Z,3.38
2019-02-20T00:43:05.466Z,3.38
2019-02-20T00:44:06.038Z,3.38
2019-02-20T00:45:05.244Z,3.31
2019-02-20T00:46:05.295Z,3.31
2019-02-20T00:47:05.781Z,3.31
2019-02-20T00:48:05.470Z,3.31
2019-02-20T00:49:05.798Z,3.31
2019-02-20T00:50:05.124Z,3.31
2019-02-20T00:51:05.404Z,3.31
2019-02-20T00:52:05.473Z,3.31
2019-02-20T00:53:05.621Z,3.31
2019-02-20T00:54:05.948Z,3.31
2019-02-20T00:55:05.147Z,3.25
2019-02-20T00:56:05.768Z,3.25
2019-02-20T00:57:05.965Z,3.25
2019-02-20T00:58:06.019Z,3.25
2019-02-20T00:59:05.638Z,3.25
2019-02-20T01:00:05.615Z,3.25
2019-02-20T01:01:05.783Z,3.25
2019-02-20T01:02:05.863Z,3.25
2019-02-20T01:03:05.086Z,3.25
2019-02-20T01:04:05.150Z,3.19
2019-02-20T01:05:05.402Z,3.25
2019-02-20T01:06:05.558Z,3.19
2019-02-20T01:07:05.868Z,3.19
2019-02-20T01:08:05.285Z,3.19
2019-02-20T01:09:05.952Z,3.19
2019-02-20T01:10:05.311Z,3.12
2019-02-20T01:11:05.398Z,3.12
2019-02-20T01:12:05.463Z,3.12
2019-02-20T01:13:05.472Z,3.12
2019-02-20T01:14:05.764Z,3.12
2019-02-20T01:15:05.859Z,3.12
2019-02-20T01:16:06.094Z,3.12
2019-02-20T01:17:05.129Z,3.12
2019-02-20T01:18:05.462Z,3.06
2019-02-20T01:19:05.682Z,3.06
2019-02-20T01:20:06.019Z,3.06
2019-02-20T01:21:05.543Z,3.06
2019-02-20T01:22:05.050Z,3.06
2019-02-20T01:23:05.308Z,3.06
2019-02-20T01:24:05.938Z,3.06
2019-02-20T01:25:05.872Z,3.06
2019-02-20T01:26:05.211Z,3.06
2019-02-20T01:27:05.421Z,3.00
2019-02-20T01:28:05.945Z,3.06
2019-02-20T01:29:05.470Z,3.06
2019-02-20T01:30:05.768Z,3.06
2019-02-20T01:31:05.964Z,3.00
2019-02-20T01:32:06.003Z,3.00
2019-02-20T01:33:05.065Z,3.00
2019-02-20T01:34:05.119Z,3.00
2019-02-20T01:35:05.709Z,3.00
2019-02-20T01:36:05.761Z,3.00
2019-02-20T01:37:05.810Z,3.00
2019-02-20T01:38:05.766Z,3.00
2019-02-20T01:39:05.944Z,3.00
2019-02-20T01:40:05.470Z,3.00
2019-02-20T01:41:06.029Z,3.00
2019-02-20T01:42:05.458Z,3.00
2019-02-20T01:43:06.039Z,3.00
2019-02-20T01:44:05.302Z,2.94
2019-02-20T01:45:05.533Z,2.94
2019-02-20T01:46:05.685Z,2.94
2019-02-20T01:47:05.306Z,2.94
2019-02-20T01:48:05.379Z,2.94
2019-02-20T01:49:05.884Z,2.94
2019-02-20T01:50:05.283Z,2.94
2019-02-20T01:51:05.778Z,2.94
2019-02-20T01:52:05.201Z,2.94
2019-02-20T01:53:10.169Z,2.94
2019-02-20T01:54:05.123Z,2.94
2019-02-20T01:55:05.048Z,2.94
2019-02-20T01:56:05.366Z,2.94
2019-02-20T01:57:05.075Z,2.94
2019-02-20T01:58:05.539Z,2.94
2019-02-20T01:59:05.630Z,2.94
2019-02-20T02:00:05.852Z,2.94
2019-02-20T02:01:05.312Z,2.94
2019-02-20T02:02:05.447Z,2.94
2019-02-20T02:03:05.559Z,2.94
2019-02-20T02:04:05.696Z,2.94
2019-02-20T02:05:14.456Z,2.94
2019-02-20T02:06:05.049Z,2.94
2019-02-20T02:07:05.711Z,2.94
2019-02-20T02:08:05.132Z,2.94
2019-02-20T02:09:05.118Z,2.94
2019-02-20T02:10:05.358Z,2.94
2019-02-20T02:11:05.037Z,2.94
2019-02-20T02:12:05.361Z,2.94
2019-02-20T02:13:05.858Z,2.88
2019-02-20T02:14:05.272Z,2.94
2019-02-20T02:15:05.938Z,2.94
2019-02-20T02:16:04.976Z,2.94
2019-02-20T02:17:05.128Z,2.94
2019-02-20T02:18:05.382Z,2.94
2019-02-20T02:19:05.515Z,2.88
2019-02-20T02:20:05.839Z,2.88
2019-02-20T02:21:05.458Z,2.88
2019-02-20T02:22:05.063Z,2.88
2019-02-20T02:23:05.234Z,2.88
2019-02-20T02:24:05.778Z,2.88
2019-02-20T02:25:05.477Z,2.81
2019-02-20T02:26:10.774Z,2.81
2019-02-20T02:27:05.524Z,2.81
2019-02-20T02:28:05.861Z,2.81
2019-02-20T02:29:05.942Z,2.81
2019-02-20T02:30:05.472Z,2.81
2019-02-20T02:31:05.288Z,2.81
2019-02-20T02:32:05.772Z,2.81
2019-02-20T02:33:05.774Z,2.81
2019-02-20T02:34:05.219Z,2.81
2019-02-20T02:35:05.678Z,2.75
2019-02-20T02:36:06.111Z,2.81
2019-02-20T02:37:05.035Z,2.75
2019-02-20T02:38:05.436Z,2.75
2019-02-20T02:39:05.541Z,2.69
2019-02-20T02:40:05.937Z,2.75
2019-02-20T02:41:05.430Z,2.75
2019-02-20T02:42:05.472Z,2.75
2019-02-20T02:43:05.767Z,2.75
2019-02-20T02:44:05.141Z,2.75
2019-02-20T02:45:05.475Z,2.75
2019-02-20T02:46:05.687Z,2.81
2019-02-20T02:47:05.810Z,2.81
2019-02-20T02:48:06.030Z,2.81
2019-02-20T02:49:06.007Z,2.81
2019-02-20T02:50:05.621Z,2.81
2019-02-20T02:51:05.766Z,2.75
2019-02-20T02:52:05.129Z,2.81
2019-02-20T02:53:05.129Z,2.81
2019-02-20T02:54:05.108Z,2.81
2019-02-20T02:55:05.302Z,2.81
2019-02-20T02:56:05.357Z,2.81
2019-02-20T02:57:05.942Z,2.81
2019-02-20T02:58:06.029Z,2.81
2019-02-20T02:59:05.055Z,2.81
2019-02-20T03:00:05.190Z,2.81
2019-02-20T03:01:05.763Z,2.81
2019-02-20T03:02:06.018Z,2.81
2019-02-20T03:03:05.063Z,2.81
2019-02-20T03:04:05.033Z,2.81
2019-02-20T03:05:05.550Z,2.81
2019-02-20T03:06:05.867Z,2.81
2019-02-20T03:07:05.939Z,2.81
2019-02-20T03:08:05.617Z,2.88
2019-02-20T03:09:05.890Z,2.88
2019-02-20T03:10:05.849Z,2.88
2019-02-20T03:11:05.708Z,2.88
2019-02-20T03:12:06.709Z,2.88
2019-02-20T03:13:05.064Z,2.88
2019-02-20T03:14:05.775Z,2.94
2019-02-20T03:15:05.380Z,2.94
2019-02-20T03:16:06.022Z,2.94
2019-02-20T03:17:06.027Z,2.94
2019-02-20T03:18:05.063Z,2.94
2019-02-20T03:19:05.204Z,2.94
2019-02-20T03:20:05.536Z,2.94
2019-02-20T03:21:05.118Z,2.94
2019-02-20T03:22:05.385Z,2.94
2019-02-20T03:23:05.637Z,2.94
2019-02-20T03:24:05.733Z,2.94
2019-02-20T03:25:05.871Z,2.94
2019-02-20T03:26:05.329Z,2.94
2019-02-20T03:27:05.464Z,2.94
2019-02-20T03:28:05.150Z,2.94
2019-02-20T03:29:05.310Z,2.94
2019-02-20T03:30:06.756Z,2.94
2019-02-20T03:31:05.147Z,2.94
2019-02-20T03:32:05.706Z,2.94
2019-02-20T03:33:05.617Z,2.94
2019-02-20T03:34:08.669Z,2.94
2019-02-20T03:35:05.567Z,3.00
2019-02-20T03:36:05.517Z,2.94
2019-02-20T03:37:05.242Z,2.94
2019-02-20T03:38:05.388Z,2.94
2019-02-20T03:39:05.464Z,2.94
2019-02-20T03:40:05.695Z,2.94
2019-02-20T03:41:05.367Z,2.94
2019-02-20T03:42:05.692Z,2.94
2019-02-20T03:43:05.764Z,2.94
2019-02-20T03:44:06.905Z,2.94
2019-02-20T03:45:05.128Z,2.94
2019-02-20T03:46:05.387Z,3.00
2019-02-20T03:47:05.867Z,2.94
2019-02-20T03:48:05.408Z,3.00
2019-02-20T03:49:05.794Z,3.00
2019-02-20T03:50:05.841Z,3.00
2019-02-20T03:51:05.968Z,3.00
2019-02-20T03:52:05.038Z,3.00
2019-02-20T03:53:05.635Z,3.00
2019-02-20T03:54:05.686Z,3.00
2019-02-20T03:55:05.153Z,3.00
2019-02-20T03:56:05.234Z,3.00
2019-02-20T03:57:06.533Z,3.06
2019-02-20T03:58:05.856Z,3.00
2019-02-20T03:59:06.048Z,3.00
2019-02-20T04:00:04.997Z,3.00
2019-02-20T04:01:05.250Z,3.00
2019-02-20T04:02:05.369Z,3.00
2019-02-20T04:03:05.545Z,3.00
2019-02-20T04:04:05.165Z,3.00
2019-02-20T04:05:05.234Z,3.00
2019-02-20T04:06:05.311Z,3.00
2019-02-20T04:07:05.472Z,3.00
2019-02-20T04:08:05.795Z,3.00
2019-02-20T04:09:05.859Z,3.00
2019-02-20T04:10:05.719Z,3.00
2019-02-20T04:11:05.796Z,3.00
2019-02-20T04:12:05.951Z,3.00
2019-02-20T04:13:05.136Z,2.94
2019-02-20T04:14:05.149Z,3.00
2019-02-20T04:15:05.225Z,3.00
2019-02-20T04:16:05.228Z,2.94
2019-02-20T04:17:05.776Z,2.94
2019-02-20T04:18:05.150Z,3.06
2019-02-20T04:19:05.242Z,3.06
2019-02-20T04:20:05.550Z,3.06
2019-02-20T04:21:06.010Z,3.06
2019-02-20T04:22:05.162Z,3.06
2019-02-20T04:23:05.120Z,3.00
2019-02-20T04:24:05.235Z,3.00
2019-02-20T04:25:05.762Z,3.00
2019-02-20T04:26:05.861Z,3.00
2019-02-20T04:27:06.086Z,3.12
2019-02-20T04:28:05.724Z,3.19
2019-02-20T04:29:05.615Z,3.25
2019-02-20T04:30:05.776Z,3.25
2019-02-20T04:31:05.928Z,3.25
2019-02-20T04:32:05.444Z,3.25
2019-02-20T04:33:05.693Z,3.19
2019-02-20T04:34:05.281Z,3.19
2019-02-20T04:35:05.606Z,3.19
2019-02-20T04:36:05.856Z,3.19
2019-02-20T04:37:05.374Z,3.19
2019-02-20T04:38:05.796Z,3.19
2019-02-20T04:39:05.877Z,3.19
2019-02-20T04:40:05.321Z,3.19
2019-02-20T04:41:05.296Z,3.19
2019-02-20T04:42:05.708Z,3.19
2019-02-20T04:43:05.953Z,3.19
2019-02-20T04:44:05.219Z,3.12
2019-02-20T04:45:05.383Z,3.19
2019-02-20T04:46:05.047Z,3.12
2019-02-20T04:47:05.223Z,3.12
2019-02-20T04:48:05.779Z,3.12
2019-02-20T04:49:05.841Z,3.12
2019-02-20T04:50:05.224Z,3.19
2019-02-20T04:51:05.481Z,3.12
2019-02-20T04:52:05.380Z,3.12
2019-02-20T04:53:05.862Z,3.12
2019-02-20T04:54:12.835Z,3.12
2019-02-20T04:55:05.219Z,3.12
2019-02-20T04:56:06.818Z,3.19
2019-02-20T04:57:05.488Z,3.12
2019-02-20T04:58:05.229Z,3.12
2019-02-20T04:59:05.634Z,3.19
2019-02-20T05:00:05.935Z,3.25
2019-02-20T05:01:05.679Z,3.25
2019-02-20T05:02:05.865Z,3.19
2019-02-20T05:03:05.155Z,3.19
2019-02-20T05:04:05.207Z,3.19
2019-02-20T05:05:05.288Z,3.19
2019-02-20T05:06:05.634Z,3.19
2019-02-20T05:07:05.529Z,3.19
2019-02-20T05:08:05.939Z,3.19
2019-02-20T05:09:05.377Z,3.19
2019-02-20T05:10:05.628Z,3.12
2019-02-20T05:11:05.944Z,3.19
2019-02-20T05:12:05.057Z,3.19
2019-02-20T05:13:05.642Z,3.19
2019-02-20T05:14:05.283Z,3.19
2019-02-20T05:15:05.870Z,3.19
2019-02-20T05:16:05.957Z,3.12
2019-02-20T05:17:05.149Z,3.12
2019-02-20T05:18:05.705Z,3.12
2019-02-20T05:19:06.122Z,3.12
2019-02-20T05:20:06.092Z,3.12
2019-02-20T05:21:05.539Z,3.12
2019-02-20T05:22:05.198Z,3.12
2019-02-20T05:23:05.288Z,3.12
2019-02-20T05:24:05.532Z,3.12
2019-02-20T05:25:06.348Z,3.12
2019-02-20T05:26:05.054Z,3.12
2019-02-20T05:27:05.252Z,3.12
2019-02-20T05:28:05.447Z,3.06
2019-02-20T05:29:05.488Z,3.06
2019-02-20T05:30:06.039Z,3.06
2019-02-20T05:31:05.069Z,3.00
2019-02-20T05:32:05.153Z,3.00
2019-02-20T05:33:05.318Z,3.00
2019-02-20T05:34:05.611Z,3.00
2019-02-20T05:35:05.751Z,2.94
2019-02-20T05:36:05.846Z,2.94
2019-02-20T05:37:05.322Z,2.94
2019-02-20T05:38:05.446Z,2.94
2019-02-20T05:39:05.707Z,2.94
2019-02-20T05:40:05.293Z,2.94
2019-02-20T05:41:05.517Z,3.00
2019-02-20T05:42:05.991Z,3.12
2019-02-20T05:43:05.133Z,3.19
2019-02-20T05:44:05.226Z,3.25
2019-02-20T05:45:05.797Z,3.25
2019-02-20T05:46:05.788Z,3.25
2019-02-20T05:47:05.930Z,3.25
2019-02-20T05:48:05.978Z,3.19
2019-02-20T05:49:05.954Z,3.12
2019-02-20T05:50:05.497Z,3.06
2019-02-20T05:51:05.698Z,3.12
2019-02-20T05:52:05.705Z,3.19
2019-02-20T05:53:05.701Z,3.19
2019-02-20T05:54:05.859Z,3.19
2019-02-20T05:55:05.997Z,3.31
2019-02-20T05:56:05.141Z,3.25
2019-02-20T05:57:05.212Z,3.38
2019-02-20T05:58:05.380Z,3.31
2019-02-20T05:59:05.126Z,3.31
2019-02-20T06:00:05.382Z,3.25
2019-02-20T06:01:05.775Z,3.25
2019-02-20T06:02:05.952Z,3.25
2019-02-20T06:03:05.384Z,3.25
2019-02-20T06:04:05.775Z,3.25
2019-02-20T06:05:05.204Z,3.25
2019-02-20T06:06:05.777Z,3.25
2019-02-20T06:07:05.219Z,3.19
2019-02-20T06:08:05.303Z,3.25
2019-02-20T06:09:06.025Z,3.12
2019-02-20T06:10:05.371Z,3.06
2019-02-20T06:11:14.362Z,2.88
2019-02-20T06:12:05.840Z,2.75
2019-02-20T06:13:05.230Z,2.62
2019-02-20T06:14:05.227Z,2.50
2019-02-20T06:15:05.878Z,2.44
2019-02-20T06:16:05.077Z,2.31
2019-02-20T06:17:05.297Z,2.25
2019-02-20T06:18:05.373Z,2.19
2019-02-20T06:19:05.602Z,2.06
2019-02-20T06:20:05.704Z,2.00
2019-02-20T06:21:05.383Z,1.94
2019-02-20T06:22:05.462Z,1.88
2019-02-20T06:23:05.934Z,1.88
2019-02-20T06:24:05.629Z,1.88
2019-02-20T06:25:07.467Z,1.88
2019-02-20T06:26:06.597Z,1.81
2019-02-20T06:27:07.905Z,1.88
2019-02-20T06:28:05.725Z,1.81
2019-02-20T06:29:05.533Z,2.19
2019-02-20T06:30:05.870Z,2.19
2019-02-20T06:31:05.126Z,2.06
2019-02-20T06:32:05.702Z,2.00
2019-02-20T06:33:05.844Z,1.94
2019-02-20T06:34:05.377Z,1.88
2019-02-20T06:35:05.676Z,1.81
2019-02-20T06:36:05.851Z,1.75
2019-02-20T06:37:05.169Z,1.75
2019-02-20T06:38:05.203Z,1.69
2019-02-20T06:39:05.520Z,1.62
2019-02-20T06:40:05.055Z,1.62
2019-02-20T06:41:05.477Z,1.62
2019-02-20T06:42:06.518Z,1.62
2019-02-20T06:43:05.782Z,1.56
2019-02-20T06:44:05.064Z,1.56
2019-02-20T06:45:05.211Z,1.56
2019-02-20T06:46:05.480Z,1.56
2019-02-20T06:47:05.595Z,1.62
2019-02-20T06:48:05.289Z,1.62
2019-02-20T06:49:05.459Z,1.62
2019-02-20T06:50:05.700Z,1.56
2019-02-20T06:51:06.037Z,1.56
2019-02-20T06:52:06.029Z,1.56
2019-02-20T06:53:05.543Z,1.56
2019-02-20T06:54:05.709Z,1.50
2019-02-20T06:55:05.203Z,1.50
2019-02-20T06:56:05.350Z,1.50
2019-02-20T06:57:05.621Z,1.50
2019-02-20T06:58:05.224Z,1.50
2019-02-20T06:59:05.454Z,1.50
2019-02-20T07:00:05.544Z,1.50
2019-02-20T07:01:05.524Z,1.50
2019-02-20T07:02:05.576Z,1.50
2019-02-20T07:03:05.532Z,1.50
2019-02-20T07:04:05.286Z,1.62
2019-02-20T07:05:05.220Z,1.75
2019-02-20T07:06:05.473Z,1.88
2019-02-20T07:07:05.793Z,1.88
2019-02-20T07:08:05.999Z,1.88
2019-02-20T07:09:05.306Z,1.88
2019-02-20T07:10:05.305Z,1.88
2019-02-20T07:11:05.383Z,1.88
2019-02-20T07:12:05.726Z,1.88
2019-02-20T07:13:05.879Z,1.88
2019-02-20T07:14:05.391Z,1.88
2019-02-20T07:15:05.436Z,1.88
2019-02-20T07:16:05.806Z,1.88
2019-02-20T07:17:05.857Z,1.88
2019-02-20T07:18:05.171Z,1.88
2019-02-20T07:19:05.386Z,1.94
2019-02-20T07:20:05.306Z,1.94
2019-02-20T07:21:06.006Z,2.00
2019-02-20T07:22:05.145Z,2.00
2019-02-20T07:23:05.940Z,2.06
2019-02-20T07:24:05.117Z,2.12
2019-02-20T07:25:05.456Z,2.12
2019-02-20T07:26:05.241Z,2.19
2019-02-20T07:27:05.366Z,2.25
2019-02-20T07:28:05.972Z,2.25
2019-02-20T07:29:05.920Z,2.31
2019-02-20T07:30:05.382Z,2.31
2019-02-20T07:31:05.155Z,2.38
2019-02-20T07:32:05.851Z,2.38
2019-02-20T07:33:06.015Z,2.44
2019-02-20T07:34:05.524Z,2.50
2019-02-20T07:35:06.010Z,2.56
2019-02-20T07:36:05.541Z,2.62
2019-02-20T07:37:05.223Z,2.88
2019-02-20T07:38:05.379Z,2.88
2019-02-20T07:39:05.781Z,2.94
2019-02-20T07:40:06.037Z,2.94
2019-02-20T07:41:05.721Z,3.00
2019-02-20T07:42:05.797Z,3.06
2019-02-20T07:43:05.840Z,3.12
2019-02-20T07:44:05.543Z,3.19
2019-02-20T07:45:05.859Z,3.19
2019-02-20T07:46:05.399Z,3.25
2019-02-20T07:47:05.378Z,3.44
2019-02-20T07:48:05.627Z,3.50
2019-02-20T07:49:05.140Z,3.56
2019-02-20T07:50:05.781Z,3.62
2019-02-20T07:51:05.381Z,3.62
2019-02-20T07:52:05.956Z,3.69
2019-02-20T07:53:06.014Z,3.75
2019-02-20T07:54:05.130Z,3.81
2019-02-20T07:55:12.854Z,3.88
2019-02-20T07:56:05.178Z,3.94
2019-02-20T07:57:05.281Z,3.94
2019-02-20T07:58:05.756Z,3.94
2019-02-20T07:59:05.190Z,3.94
2019-02-20T08:00:05.710Z,4.00
2019-02-20T08:01:05.292Z,4.00
2019-02-20T08:02:05.383Z,4.00
2019-02-20T08:03:05.757Z,4.00
2019-02-20T08:04:05.936Z,4.00
2019-02-20T08:05:05.706Z,4.06
2019-02-20T08:06:05.945Z,4.06
2019-02-20T08:07:05.635Z,4.06
2019-02-20T08:08:05.851Z,4.06
2019-02-20T08:09:05.219Z,4.12
2019-02-20T08:10:05.637Z,4.12
2019-02-20T08:11:05.622Z,4.12
2019-02-20T08:12:05.233Z,4.12
2019-02-20T08:13:05.289Z,4.12
2019-02-20T08:14:05.217Z,4.19
2019-02-20T08:15:05.312Z,4.19
2019-02-20T08:16:05.371Z,4.19
2019-02-20T08:17:05.727Z,4.25
2019-02-20T08:18:05.943Z,4.25
2019-02-20T08:19:05.442Z,4.31
2019-02-20T08:20:05.876Z,4.38
2019-02-20T08:21:05.395Z,4.50
2019-02-20T08:22:05.987Z,4.50
2019-02-20T08:23:06.095Z,4.75
2019-02-20T08:24:05.300Z,4.75
2019-02-20T08:25:05.436Z,4.81
2019-02-20T08:26:05.231Z,4.81
2019-02-20T08:27:05.777Z,4.81
2019-02-20T08:28:06.120Z,4.94
2019-02-20T08:29:05.213Z,5.00
2019-02-20T08:30:05.401Z,5.06
2019-02-20T08:31:05.380Z,5.06
2019-02-20T08:32:05.811Z,5.06
2019-02-20T08:33:05.954Z,5.06
2019-02-20T08:34:05.559Z,5.12
2019-02-20T08:35:05.780Z,5.12
2019-02-20T08:36:05.315Z,5.12
2019-02-20T08:37:05.524Z,5.19
2019-02-20T08:38:05.698Z,5.19
2019-02-20T08:39:05.281Z,5.19
2019-02-20T08:40:05.894Z,5.25
2019-02-20T08:41:05.602Z,5.31
2019-02-20T08:42:05.304Z,5.31
2019-02-20T08:43:06.031Z,5.38
2019-02-20T08:44:05.062Z,5.38
2019-02-20T08:45:05.684Z,5.44
2019-02-20T08:46:05.231Z,5.44
2019-02-20T08:47:05.278Z,5.50
2019-02-20T08:48:05.577Z,5.56
2019-02-20T08:49:05.802Z,5.62
2019-02-20T08:50:06.044Z,5.62
2019-02-20T08:51:05.059Z,5.69
2019-02-20T08:52:05.229Z,5.69
2019-02-20T08:53:05.868Z,5.75
2019-02-20T08:54:06.036Z,5.81
2019-02-20T08:55:05.088Z,5.81
2019-02-20T08:56:05.470Z,5.88
2019-02-20T08:57:05.783Z,5.88
2019-02-20T08:58:05.279Z,5.94
2019-02-20T08:59:05.764Z,5.94
2019-02-20T09:00:05.147Z,6.00
2019-02-20T09:01:05.705Z,6.00
2019-02-20T09:02:05.317Z,6.06
2019-02-20T09:03:05.447Z,6.06
2019-02-20T09:04:05.524Z,6.06
2019-02-20T09:05:05.921Z,6.12
2019-02-20T09:06:05.637Z,6.12
2019-02-20T09:07:05.550Z,6.19
2019-02-20T09:08:05.771Z,6.19
2019-02-20T09:09:06.023Z,6.25
2019-02-20T09:10:05.132Z,6.25
2019-02-20T09:11:05.525Z,6.31
2019-02-20T09:12:06.021Z,6.38
2019-02-20T09:13:05.132Z,6.38
2019-02-20T09:14:05.288Z,6.44
2019-02-20T09:15:05.543Z,6.44
2019-02-20T09:16:05.952Z,6.50
2019-02-20T09:17:05.542Z,6.50
2019-02-20T09:18:05.638Z,6.56
2019-02-20T09:19:05.770Z,6.56
2019-02-20T09:20:05.468Z,6.62
2019-02-20T09:21:05.614Z,6.62
2019-02-20T09:22:05.787Z,6.69
2019-02-20T09:23:06.023Z,6.75
2019-02-20T09:24:05.304Z,6.81
2019-02-20T09:25:05.763Z,6.81
2019-02-20T09:26:05.472Z,6.88
2019-02-20T09:27:05.701Z,6.88
2019-02-20T09:28:05.303Z,6.94
2019-02-20T09:29:05.700Z,6.94
2019-02-20T09:30:05.300Z,7.00
2019-02-20T09:31:05.849Z,7.00
2019-02-20T09:32:05.074Z,7.06
2019-02-20T09:33:05.293Z,7.06
2019-02-20T09:34:05.311Z,7.12
2019-02-20T09:35:05.547Z,7.12
2019-02-20T09:36:06.031Z,7.19
2019-02-20T09:37:05.118Z,7.19
2019-02-20T09:38:05.749Z,7.19
2019-02-20T09:39:05.931Z,7.25
2019-02-20T09:40:05.138Z,7.31
2019-02-20T09:41:05.600Z,7.31
2019-02-20T09:42:05.706Z,7.38
2019-02-20T09:43:05.297Z,7.38
2019-02-20T09:44:05.783Z,7.50
2019-02-20T09:45:05.629Z,7.81
2019-02-20T09:46:06.199Z,7.94
2019-02-20T09:47:05.398Z,7.94
2019-02-20T09:48:05.388Z,7.94
2019-02-20T09:49:05.920Z,7.94
2019-02-20T09:50:05.427Z,7.94
2019-02-20T09:51:05.613Z,7.94
2019-02-20T09:52:05.127Z,7.94
2019-02-20T09:53:05.440Z,7.94
2019-02-20T09:54:05.962Z,7.94
2019-02-20T09:55:05.141Z,8.00
2019-02-20T09:56:05.296Z,8.19
2019-02-20T09:57:05.676Z,8.25
2019-02-20T09:58:05.118Z,8.19
2019-02-20T09:59:05.315Z,8.25
2019-02-20T10:00:05.390Z,8.25
2019-02-20T10:01:05.710Z,8.25
2019-02-20T10:02:05.716Z,8.25
2019-02-20T10:03:05.379Z,8.25
2019-02-20T10:04:05.443Z,8.31
2019-02-20T10:05:05.676Z,8.31
2019-02-20T10:06:05.538Z,8.38
2019-02-20T10:07:05.623Z,8.38
2019-02-20T10:08:06.115Z,8.44
2019-02-20T10:09:05.297Z,8.44
2019-02-20T10:10:05.867Z,8.50
2019-02-20T10:11:05.290Z,8.50
2019-02-20T10:12:05.061Z,8.50
2019-02-20T10:13:05.234Z,8.50
2019-02-20T10:14:05.556Z,8.56
2019-02-20T10:15:05.783Z,8.56
2019-02-20T10:16:05.062Z,8.62
2019-02-20T10:17:05.449Z,8.62
2019-02-20T10:18:05.218Z,8.62
2019-02-20T10:19:05.286Z,8.69
2019-02-20T10:20:05.461Z,8.69
2019-02-20T10:21:05.110Z,8.69
2019-02-20T10:22:05.987Z,8.75
2019-02-20T10:23:05.463Z,8.75
2019-02-20T10:24:05.776Z,8.75
2019-02-20T10:25:05.913Z,8.81
2019-02-20T10:26:05.544Z,8.81
2019-02-20T10:27:05.779Z,8.81
2019-02-20T10:28:05.939Z,8.88
2019-02-20T10:29:05.458Z,8.88
2019-02-20T10:30:05.851Z,8.94
2019-02-20T10:31:06.002Z,8.94
2019-02-20T10:32:05.148Z,8.94
2019-02-20T10:33:05.317Z,9.00
2019-02-20T10:34:05.637Z,9.00
2019-02-20T10:35:05.688Z,9.00
2019-02-20T10:36:05.396Z,9.06
2019-02-20T10:37:05.549Z,9.06
2019-02-20T10:38:05.630Z,9.06
2019-02-20T10:39:05.923Z,9.12
2019-02-20T10:40:05.474Z,9.12
2019-02-20T10:41:05.838Z,9.12
2019-02-20T10:42:05.481Z,9.19
2019-02-20T10:43:05.615Z,9.19
2019-02-20T10:44:05.783Z,9.25
2019-02-20T10:45:05.915Z,9.25
2019-02-20T10:46:05.381Z,9.25
2019-02-20T10:47:05.438Z,9.31
2019-02-20T10:48:05.166Z,9.31
2019-02-20T10:49:05.304Z,9.31
2019-02-20T10:50:05.466Z,9.31
2019-02-20T10:51:05.772Z,9.38
2019-02-20T10:52:05.487Z,9.38
2019-02-20T10:53:05.832Z,9.38
2019-02-20T10:54:05.386Z,9.44
2019-02-20T10:55:06.008Z,9.44
2019-02-20T10:56:09.270Z,9.44
2019-02-20T10:57:05.225Z,9.50
2019-02-20T10:58:05.647Z,9.44
2019-02-20T10:59:05.767Z,9.50
2019-02-20T11:00:05.963Z,9.50
2019-02-20T11:01:05.137Z,9.50
2019-02-20T11:02:05.311Z,9.50
2019-02-20T11:03:05.768Z,9.56
2019-02-20T11:04:06.043Z,9.56
2019-02-20T11:05:05.932Z,9.56
2019-02-20T11:06:05.072Z,9.56
2019-02-20T11:07:05.130Z,9.62
2019-02-20T11:08:05.705Z,9.62
2019-02-20T11:09:05.458Z,9.62
2019-02-20T11:10:05.870Z,9.62
2019-02-20T11:11:05.277Z,9.69
2019-02-20T11:12:05.379Z,9.69
2019-02-20T11:13:05.608Z,9.69
2019-02-20T11:14:05.709Z,9.69
2019-02-20T11:15:05.231Z,9.75
2019-02-20T11:16:05.307Z,9.75
2019-02-20T11:17:05.377Z,9.75
2019-02-20T11:18:05.382Z,9.75
2019-02-20T11:19:06.161Z,9.81
2019-02-20T11:20:05.473Z,9.81
2019-02-20T11:21:05.848Z,9.81
2019-02-20T11:22:05.955Z,9.81
2019-02-20T11:23:05.370Z,9.81
2019-02-20T11:24:05.762Z,9.81
2019-02-20T11:25:05.169Z,9.81
2019-02-20T11:26:05.231Z,9.88
2019-02-20T11:27:05.553Z,9.88
2019-02-20T11:28:05.855Z,9.88
2019-02-20T11:29:05.535Z,9.94
2019-02-20T11:30:07.130Z,9.88
2019-02-20T11:31:05.940Z,9.94
2019-02-20T11:32:05.142Z,9.94
2019-02-20T11:33:05.616Z,9.94
2019-02-20T11:34:05.948Z,10.00
2019-02-20T11:35:05.936Z,10.00
2019-02-20T11:36:05.379Z,10.06
2019-02-20T11:37:05.471Z,10.06
2019-02-20T11:38:05.882Z,10.12
2019-02-20T11:39:06.092Z,10.12
2019-02-20T11:40:05.226Z,10.12
2019-02-20T11:41:05.611Z,10.12
2019-02-20T11:42:05.311Z,10.12
2019-02-20T11:43:06.244Z,10.12
2019-02-20T11:44:05.850Z,10.12
2019-02-20T11:45:05.145Z,10.12
2019-02-20T11:46:05.386Z,10.12
2019-02-20T11:47:05.843Z,10.12
2019-02-20T11:48:05.364Z,10.12
2019-02-20T11:49:05.773Z,10.06
2019-02-20T11:50:05.677Z,10.06
2019-02-20T11:51:05.829Z,10.06
2019-02-20T11:52:05.461Z,10.06
2019-02-20T11:53:05.177Z,10.06
2019-02-20T11:54:05.309Z,10.00
2019-02-20T11:55:05.542Z,10.00
2019-02-20T11:56:05.147Z,10.00
2019-02-20T11:57:05.279Z,10.00
2019-02-20T11:58:05.462Z,10.00
2019-02-20T11:59:05.175Z,10.00
2019-02-20T12:00:05.371Z,10.00
2019-02-20T12:01:05.630Z,10.00
2019-02-20T12:02:05.950Z,10.00
2019-02-20T12:03:05.349Z,10.00
2019-02-20T12:04:05.460Z,10.00
2019-02-20T12:05:05.715Z,10.00
2019-02-20T12:06:05.795Z,10.06
2019-02-20T12:07:05.845Z,10.00
2019-02-20T12:08:06.037Z,10.00
2019-02-20T12:09:05.525Z,10.06
2019-02-20T12:10:05.791Z,10.06
2019-02-20T12:11:05.838Z,10.06
2019-02-20T12:12:05.372Z,10.06
2019-02-20T12:13:05.517Z,10.06
2019-02-20T12:14:05.116Z,10.06
2019-02-20T12:15:05.310Z,10.06
2019-02-20T12:16:05.533Z,10.06
2019-02-20T12:17:05.780Z,10.06
2019-02-20T12:18:05.036Z,10.06
2019-02-20T12:19:05.199Z,10.06
2019-02-20T12:20:05.783Z,10.12
2019-02-20T12:21:05.379Z,10.12
2019-02-20T12:22:05.414Z,10.12
2019-02-20T12:23:05.455Z,10.12
2019-02-20T12:24:05.995Z,10.12
2019-02-20T12:25:05.212Z,10.12
2019-02-20T12:26:05.580Z,10.12
2019-02-20T12:27:05.677Z,10.12
2019-02-20T12:28:05.796Z,10.12
2019-02-20T12:29:05.870Z,10.12
2019-02-20T12:30:05.536Z,10.12
2019-02-20T12:31:05.754Z,10.12
2019-02-20T12:32:06.934Z,10.12
2019-02-20T12:33:05.386Z,10.12
2019-02-20T12:34:05.276Z,10.12
2019-02-20T12:35:05.542Z,10.12
2019-02-20T12:36:05.700Z,10.12
2019-02-20T12:37:05.951Z,10.19
2019-02-20T12:38:05.339Z,10.19
2019-02-20T12:39:05.538Z,10.19
2019-02-20T12:40:05.680Z,10.19
2019-02-20T12:41:05.864Z,10.19
2019-02-20T12:42:05.064Z,10.19
2019-02-20T12:43:05.550Z,10.25
2019-02-20T12:44:05.807Z,10.25
2019-02-20T12:45:05.863Z,10.25
2019-02-20T12:46:06.022Z,10.25
2019-02-20T12:47:05.674Z,10.25
2019-02-20T12:48:05.225Z,10.31
2019-02-20T12:49:05.763Z,10.31
2019-02-20T12:50:05.378Z,10.31
2019-02-20T12:51:05.760Z,10.31
2019-02-20T12:52:05.136Z,10.31
2019-02-20T12:53:05.716Z,10.31
2019-02-20T12:54:05.695Z,10.31
2019-02-20T12:55:05.286Z,10.31
2019-02-20T12:56:09.919Z,10.31
2019-02-20T12:57:05.855Z,10.38
2019-02-20T12:58:05.225Z,10.31
2019-02-20T12:59:07.874Z,10.31
2019-02-20T13:00:05.637Z,10.31
2019-02-20T13:01:05.219Z,10.31
2019-02-20T13:02:05.708Z,10.31
2019-02-20T13:03:05.287Z,10.38
2019-02-20T13:04:05.963Z,10.38
2019-02-20T13:05:05.219Z,10.38
2019-02-20T13:06:05.399Z,10.38
2019-02-20T13:07:05.708Z,10.38
2019-02-20T13:08:06.007Z,10.44
2019-02-20T13:09:05.367Z,10.38
2019-02-20T13:10:05.459Z,10.38
2019-02-20T13:11:05.674Z,10.38
2019-02-20T13:12:05.780Z,10.38
2019-02-20T13:13:05.450Z,10.38
2019-02-20T13:14:05.930Z,10.38
2019-02-20T13:15:05.284Z,10.38